Time;durP1;ratioP1;P1;durP2;ratioP2;P2;SDS_P1;SDS_P2;PMS_P1;PMS_P2;Temp;Humidity;BMP_temperature;BMP_pressure;BME280_temperature;BME280_humidity;BME280_pressure;Samples;Min_cycle;Max_cycle;Signal;HPM_P1;HPM_P2
2022/11/20 00:00:56;;;;;;;2.78;2.45;;;;;;;0.11;76.94;101534.00;5034915;27;96809;-32
2022/11/20 00:03:22;;;;;;;2.78;1.50;;;;;;;0.12;76.58;101535.75;5052573;27;97593;-31
2022/11/20 00:05:47;;;;;;;3.67;2.03;;;;;;;0.07;76.93;101526.94;5052918;27;97408;-32
2022/11/20 00:08:13;;;;;;;3.88;2.65;;;;;;;0.02;76.87;101532.28;5052079;27;96589;-31
2022/11/20 00:10:39;;;;;;;5.38;3.22;;;;;;;0.03;76.92;101536.75;5052896;27;96644;-32
2022/11/20 00:13:05;;;;;;;3.17;2.60;;;;;;;0.03;77.12;101534.06;5034195;27;101478;-32
2022/11/20 00:15:31;;;;;;;2.38;2.13;;;;;;;0.05;77.26;101534.03;5033967;27;100760;-31
2022/11/20 00:17:56;;;;;;;4.40;3.85;;;;;;;0.02;77.44;101526.97;5052745;27;96518;-33
2022/11/20 00:20:22;;;;;;;2.42;2.10;;;;;;;0.01;77.18;101527.00;5052512;27;96857;-31
2022/11/20 00:22:47;;;;;;;8.63;3.58;;;;;;;-0.01;77.58;101517.22;5052277;27;99272;-33
2022/11/20 00:25:13;;;;;;;1.00;0.85;;;;;;;-0.04;77.04;101517.25;5052328;27;99086;-33
2022/11/20 00:27:39;;;;;;;2.13;1.40;;;;;;;-0.10;77.53;101516.41;5052297;27;96538;-32
2022/11/20 00:30:06;;;;;;;2.92;1.92;;;;;;;-0.09;77.50;101516.41;5034505;27;96864;-33
2022/11/20 00:32:31;;;;;;;2.35;1.92;;;;;;;-0.14;77.40;101523.53;5033287;27;97579;-31
2022/11/20 00:34:56;;;;;;;1.40;1.30;;;;;;;-0.17;77.43;101527.97;5052282;27;97650;-33
2022/11/20 00:37:22;;;;;;;1.25;1.15;;;;;;;-0.16;78.00;101530.66;5052183;27;104514;-32
2022/11/20 00:39:47;;;;;;;3.55;2.40;;;;;;;-0.22;78.09;101520.91;5052441;27;96625;-31
2022/11/20 00:42:12;;;;;;;3.45;1.80;;;;;;;-0.20;78.26;101517.38;5052082;27;107919;-32
2022/11/20 00:44:38;;;;;;;1.92;1.42;;;;;;;-0.20;78.25;101518.25;5033866;27;101130;-32
2022/11/20 00:47:03;;;;;;;2.90;2.10;;;;;;;-0.21;78.17;101511.16;5051614;27;103125;-33
2022/11/20 00:49:28;;;;;;;1.60;1.50;;;;;;;-0.18;78.45;101505.81;5052681;27;96777;-31
2022/11/20 00:51:54;;;;;;;1.45;1.17;;;;;;;-0.22;78.45;101493.41;5052031;27;97848;-31
2022/11/20 00:54:19;;;;;;;1.42;1.33;;;;;;;-0.20;77.92;101499.59;5052062;27;97877;-32
2022/11/20 00:56:44;;;;;;;1.75;1.45;;;;;;;-0.22;78.28;101506.72;5051690;27;96549;-31
2022/11/20 00:59:10;;;;;;;3.20;2.25;;;;;;;-0.25;78.03;101504.09;5051714;27;96839;-31
2022/11/20 01:01:37;;;;;;;4.00;1.75;;;;;;;-0.27;78.05;101512.06;5036572;27;101389;-31
2022/11/20 01:04:02;;;;;;;1.38;1.27;;;;;;;-0.25;77.95;101520.94;5055452;27;97338;-32
2022/11/20 01:06:31;;;;;;;2.45;1.48;;;;;;;-0.23;78.15;101515.59;5055657;27;97104;-31
2022/11/20 01:08:58;;;;;;;5.30;2.00;;;;;;;-0.27;78.29;101521.84;5036983;27;96884;-31
2022/11/20 01:11:27;;;;;;;1.00;0.93;;;;;;;-0.28;78.28;101520.09;5036900;27;104321;-31
2022/11/20 01:13:54;;;;;;;1.83;1.70;;;;;;;-0.30;78.27;101525.41;5037400;27;101714;-32
2022/11/20 01:16:22;;;;;;;1.77;1.45;;;;;;;-0.35;78.14;101523.69;5036792;27;96853;-31
2022/11/20 01:18:50;;;;;;;2.28;1.70;;;;;;;-0.41;78.56;101513.94;5055177;27;96803;-33
2022/11/20 01:21:19;;;;;;;0.57;0.57;;;;;;;-0.37;79.16;101514.81;5036507;27;100731;-31
2022/11/20 01:23:45;;;;;;;2.67;1.13;;;;;;;-0.39;78.89;101504.16;5036656;27;101115;-32
2022/11/20 01:26:16;;;;;;;4.53;1.95;;;;;;;-0.38;78.66;101505.94;5013439;28;96551;-31
2022/11/20 01:28:43;;;;;;;8.85;2.20;;;;;;;-0.38;78.93;101494.38;5014423;28;96663;-31
2022/11/20 01:31:11;;;;;;;2.50;1.67;;;;;;;-0.36;78.71;101500.59;5013786;28;97443;-31
2022/11/20 01:33:37;;;;;;;2.05;1.23;;;;;;;-0.42;78.69;101501.53;5014341;28;99130;-32
2022/11/20 01:36:05;;;;;;;2.08;1.48;;;;;;;-0.45;78.64;101510.41;5014357;28;105596;-31
2022/11/20 01:38:31;;;;;;;1.50;1.25;;;;;;;-0.39;78.64;101511.25;5014674;28;96912;-32
2022/11/20 01:40:56;;;;;;;2.85;1.70;;;;;;;-0.44;78.80;101506.84;5016619;28;100860;-32
2022/11/20 01:43:23;;;;;;;0.52;0.50;;;;;;;-0.47;79.01;101506.00;5016265;28;99926;-31
2022/11/20 01:46:14;;;;;;;2.83;1.40;;;;;;;-0.51;78.51;101502.44;5015825;28;96574;-32
2022/11/20 01:48:49;;;;;;;3.20;1.92;;;;;;;-0.52;78.86;101499.81;5034464;28;96787;-31
2022/11/20 01:51:24;;;;;;;1.38;1.15;;;;;;;-0.55;79.02;101495.41;5016331;28;101220;-33
2022/11/20 01:53:52;;;;;;;1.05;0.93;;;;;;;-0.58;79.44;101494.53;5016022;28;101042;-33
2022/11/20 01:56:18;;;;;;;1.50;1.40;;;;;;;-0.59;79.48;101485.66;5016271;28;96683;-31
2022/11/20 01:58:48;;;;;;;1.98;1.73;;;;;;;-0.61;79.61;101495.41;5016074;28;96850;-33
2022/11/20 02:01:14;;;;;;;0.65;0.57;;;;;;;-0.66;79.68;101491.91;5016134;28;101153;-34
2022/11/20 02:03:40;;;;;;;1.90;1.63;;;;;;;-0.69;79.42;101495.47;5034579;28;99110;-31
2022/11/20 02:06:14;;;;;;;2.13;1.95;;;;;;;-0.69;79.66;101498.13;5016232;28;96789;-32
2022/11/20 02:08:39;;;;;;;1.48;1.08;;;;;;;-0.69;79.59;101499.88;5016090;28;96787;-31
2022/11/20 02:11:04;;;;;;;2.42;1.58;;;;;;;-0.71;80.11;101499.03;5033332;27;101080;-32
2022/11/20 02:13:45;;;;;;;2.63;1.77;;;;;;;-0.73;79.62;101496.38;5033828;28;98276;-34
2022/11/20 02:16:30;;;;;;;3.17;1.55;;;;;;;-0.74;79.92;101491.94;5015790;28;96720;-33
2022/11/20 02:18:58;;;;;;;3.70;1.73;;;;;;;-0.70;80.16;101499.00;5016065;28;96782;-33
2022/11/20 02:21:30;;;;;;;1.63;1.52;;;;;;;-0.70;80.21;101493.69;5015701;28;101104;-31
2022/11/20 02:24:04;;;;;;;3.05;2.13;;;;;;;-0.71;79.88;101488.38;5015363;27;101423;-32
2022/11/20 02:26:32;;;;;;;1.55;1.42;;;;;;;-0.71;79.96;101483.94;5034419;28;96473;-33
2022/11/20 02:29:00;;;;;;;0.98;0.90;;;;;;;-0.72;80.04;101489.25;5016033;28;96849;-32
2022/11/20 02:31:26;;;;;;;1.73;1.58;;;;;;;-0.76;80.32;101484.84;5033610;28;99119;-32
2022/11/20 02:33:56;;;;;;;6.47;1.83;;;;;;;-0.75;80.36;101481.31;5033940;28;97860;-31
2022/11/20 02:36:23;;;;;;;1.02;0.93;;;;;;;-0.75;80.38;101482.19;5015254;28;96870;-31
2022/11/20 02:38:49;;;;;;;1.48;1.38;;;;;;;-0.73;80.30;101487.50;5015606;28;96895;-32
2022/11/20 02:41:15;;;;;;;1.15;0.73;;;;;;;-0.74;80.58;101480.41;5015497;28;101592;-32
2022/11/20 02:43:40;;;;;;;1.88;0.82;;;;;;;-0.76;80.63;101490.16;5033654;28;97786;-33
2022/11/20 02:46:07;;;;;;;2.45;1.48;;;;;;;-0.77;80.46;101485.75;5033507;28;112206;-32
2022/11/20 02:48:32;;;;;;;3.95;1.65;;;;;;;-0.76;80.90;101469.78;5015365;28;97031;-31
2022/11/20 02:50:57;;;;;;;0.73;0.65;;;;;;;-0.76;80.88;101458.25;5033114;28;111259;-32
2022/11/20 02:53:23;;;;;;;3.92;1.70;;;;;;;-0.73;80.59;101466.22;5033532;28;110507;-32
2022/11/20 02:55:48;;;;;;;4.65;1.35;;;;;;;-0.74;80.63;101460.03;5033374;28;98746;-32
2022/11/20 02:58:13;;;;;;;3.17;2.13;;;;;;;-0.71;80.77;101457.34;5033727;28;96625;-31
2022/11/20 03:00:39;;;;;;;3.55;2.33;;;;;;;-0.70;80.53;101461.75;5032799;28;97842;-32
2022/11/20 03:03:04;;;;;;;3.85;2.58;;;;;;;-0.73;80.70;101456.47;5033201;28;104788;-32
2022/11/20 03:05:29;;;;;;;1.58;1.20;;;;;;;-0.75;80.64;101450.25;5033216;28;96501;-32
2022/11/20 03:07:54;;;;;;;2.83;2.25;;;;;;;-0.77;80.66;101449.38;5032319;28;115942;-31
2022/11/20 03:10:20;;;;;;;1.10;1.05;;;;;;;-0.74;80.70;101452.06;5032769;28;112475;-31
2022/11/20 03:12:45;;;;;;;0.98;0.93;;;;;;;-0.74;80.53;101437.84;5032998;28;98114;-32
2022/11/20 03:15:11;;;;;;;1.75;1.13;;;;;;;-0.75;80.75;101433.44;5032747;28;102705;-31
2022/11/20 03:17:36;;;;;;;2.25;1.15;;;;;;;-0.77;80.85;101429.88;5033326;28;96866;-31
2022/11/20 03:20:01;;;;;;;1.58;1.00;;;;;;;-0.83;80.88;101424.59;5033022;28;97931;-32
2022/11/20 03:22:29;;;;;;;3.67;1.90;;;;;;;-0.82;80.64;101435.22;5032899;28;99092;-32
2022/11/20 03:24:55;;;;;;;2.28;0.88;;;;;;;-0.82;80.96;101435.22;5018874;28;97185;-32
2022/11/20 03:27:20;;;;;;;2.33;1.40;;;;;;;-0.81;81.07;101439.69;5032690;27;104723;-31
2022/11/20 03:29:45;;;;;;;1.60;1.50;;;;;;;-0.81;81.01;101428.13;5033065;27;98106;-33
2022/11/20 03:32:11;;;;;;;1.13;1.02;;;;;;;-0.80;80.85;101419.28;5032196;27;120012;-33
2022/11/20 03:34:36;;;;;;;1.30;0.95;;;;;;;-0.82;80.85;101427.25;5032451;28;111669;-33
2022/11/20 03:37:01;;;;;;;4.13;1.65;;;;;;;-0.83;81.10;101419.28;5032900;28;98198;-32
2022/11/20 03:39:26;;;;;;;2.40;1.67;;;;;;;-0.83;80.73;101425.50;5032145;28;120795;-31
2022/11/20 03:41:52;;;;;;;0.80;0.80;;;;;;;-0.86;80.89;101409.53;5031900;27;121285;-32
2022/11/20 03:44:20;;;;;;;2.67;1.85;;;;;;;-0.87;80.85;101416.63;5032184;28;113726;-31
2022/11/20 03:46:46;;;;;;;1.80;1.33;;;;;;;-0.87;81.15;101421.97;5031346;28;96811;-32
2022/11/20 03:49:11;;;;;;;2.38;1.70;;;;;;;-0.89;80.79;101422.84;5032031;28;108080;-31
2022/11/20 03:51:36;;;;;;;1.70;1.25;;;;;;;-0.92;80.91;101415.78;5032074;27;112456;-31
2022/11/20 03:54:05;;;;;;;2.33;1.55;;;;;;;-0.95;81.07;101409.63;5032915;27;96487;-31
2022/11/20 03:56:32;;;;;;;1.75;1.65;;;;;;;-0.96;81.08;101415.81;5031282;28;96851;-31
2022/11/20 03:58:58;;;;;;;2.58;1.83;;;;;;;-0.96;81.11;101411.38;5031048;28;101383;-32
2022/11/20 04:01:28;;;;;;;2.78;2.03;;;;;;;-0.98;81.55;101401.63;5030977;28;101012;-32
2022/11/20 04:03:54;;;;;;;3.65;2.13;;;;;;;-0.97;81.35;101396.31;5031196;28;96524;-31
2022/11/20 04:06:22;;;;;;;2.25;2.05;;;;;;;-0.95;81.55;101380.38;5031605;28;96828;-32
2022/11/20 04:08:48;;;;;;;2.22;2.03;;;;;;;-0.98;81.72;101386.56;5030721;28;101031;-33
2022/11/20 04:11:19;;;;;;;1.80;1.30;;;;;;;-0.95;81.41;101385.69;5030934;28;97178;-31
2022/11/20 04:13:50;;;;;;;0.57;0.57;;;;;;;-0.93;81.60;101381.22;5030503;28;97098;-32
2022/11/20 04:16:16;;;;;;;2.37;1.73;;;;;;;-0.96;81.36;101384.78;5030658;28;97284;-32
2022/11/20 04:18:43;;;;;;;3.22;2.47;;;;;;;-0.96;81.34;101381.25;5031902;27;99289;-33
2022/11/20 04:21:08;;;;;;;1.15;1.10;;;;;;;-0.95;81.54;101373.28;5032112;27;99141;-31
2022/11/20 04:23:33;;;;;;;0.75;0.57;;;;;;;-0.96;81.25;101367.94;5032369;27;96739;-32
2022/11/20 04:26:08;;;;;;;3.13;1.95;;;;;;;-0.96;81.41;101368.81;5032023;27;96887;-31
2022/11/20 04:28:33;;;;;;;2.55;1.85;;;;;;;-0.97;81.45;101368.84;5013805;28;100840;-31
2022/11/20 04:31:08;;;;;;;1.60;1.50;;;;;;;-0.97;81.30;101371.50;5032482;28;97734;-32
2022/11/20 04:33:34;;;;;;;1.85;1.52;;;;;;;-0.99;81.62;101371.50;5013890;28;96640;-31
2022/11/20 04:36:05;;;;;;;0.73;0.70;;;;;;;-0.99;81.61;101378.59;5016425;28;96673;-32
2022/11/20 04:38:31;;;;;;;2.33;1.25;;;;;;;-0.99;81.55;101382.16;5016815;28;102177;-31
2022/11/20 04:40:58;;;;;;;2.10;1.90;;;;;;;-0.99;81.52;101374.16;5035710;28;98067;-31
2022/11/20 04:43:24;;;;;;;1.92;1.55;;;;;;;-1.02;81.46;101373.31;5017370;28;96584;-32
2022/11/20 04:45:57;;;;;;;2.70;1.67;;;;;;;-1.03;81.19;101369.75;5017431;28;96778;-32
2022/11/20 04:48:23;;;;;;;2.28;1.67;;;;;;;-1.07;81.60;101373.34;5017403;28;100799;-32
2022/11/20 04:50:48;;;;;;;2.40;2.03;;;;;;;-1.05;81.58;101382.16;5035195;28;99230;-31
2022/11/20 04:53:14;;;;;;;2.35;1.67;;;;;;;-1.01;81.82;101380.38;5035538;28;97311;-32
2022/11/20 04:55:40;;;;;;;2.47;1.55;;;;;;;-1.04;81.72;101373.31;5017677;28;96859;-32
2022/11/20 04:58:05;;;;;;;1.65;1.50;;;;;;;-1.05;81.97;101362.69;5035128;28;99190;-32
2022/11/20 05:00:30;;;;;;;1.63;1.00;;;;;;;-1.07;81.64;101363.59;5035382;28;97841;-31
2022/11/20 05:02:56;;;;;;;2.03;1.73;;;;;;;-1.08;81.80;101364.47;5034655;28;105519;-32
2022/11/20 05:05:21;;;;;;;0.93;0.90;;;;;;;-1.07;81.70;101366.25;5017003;28;96883;-32
2022/11/20 05:07:46;;;;;;;1.30;1.02;;;;;;;-1.08;81.77;101361.81;5034540;28;114887;-31
2022/11/20 05:10:12;;;;;;;2.03;1.40;;;;;;;-1.10;81.75;101357.38;5035163;28;97981;-31
2022/11/20 05:12:37;;;;;;;1.77;1.20;;;;;;;-1.10;81.83;101360.97;5035149;28;96559;-32
2022/11/20 05:15:03;;;;;;;2.13;1.50;;;;;;;-1.07;81.98;101365.38;5035186;28;101008;-32
2022/11/20 05:17:28;;;;;;;2.88;1.50;;;;;;;-1.08;81.79;101371.56;5035086;28;97730;-32
2022/11/20 05:19:53;;;;;;;0.63;0.63;;;;;;;-1.09;81.94;101373.34;5034859;28;98748;-31
2022/11/20 05:22:19;;;;;;;1.65;1.55;;;;;;;-1.12;81.99;101377.78;5034592;28;109348;-31
2022/11/20 05:24:44;;;;;;;0.63;0.63;;;;;;;-1.07;81.69;101383.97;5034807;27;96753;-32
2022/11/20 05:27:09;;;;;;;2.75;2.40;;;;;;;-1.14;82.13;101375.16;5034347;28;108600;-32
2022/11/20 05:29:34;;;;;;;1.65;1.05;;;;;;;-1.13;82.16;101374.22;5034766;28;100008;-32
2022/11/20 05:32:00;;;;;;;2.33;1.77;;;;;;;-1.14;82.16;101368.94;5034768;28;96522;-32
2022/11/20 05:34:25;;;;;;;1.83;1.63;;;;;;;-1.13;82.50;101371.56;5034482;28;108120;-32
2022/11/20 05:36:50;;;;;;;1.75;1.23;;;;;;;-1.12;82.08;101369.78;5034475;28;108162;-32
2022/11/20 05:39:16;;;;;;;3.33;1.77;;;;;;;-1.13;82.13;101368.03;5034759;28;97764;-32
2022/11/20 05:41:41;;;;;;;1.02;0.98;;;;;;;-1.16;82.31;101360.97;5034399;28;106308;-31
2022/11/20 05:44:06;;;;;;;1.83;1.52;;;;;;;-1.17;82.43;101364.53;5034735;28;105896;-31
2022/11/20 05:46:32;;;;;;;1.05;0.95;;;;;;;-1.16;82.40;101360.09;5033560;27;97835;-31
2022/11/20 05:49:00;;;;;;;2.30;1.20;;;;;;;-1.18;82.55;101351.25;5034324;28;99255;-31
2022/11/20 05:51:27;;;;;;;1.75;1.60;;;;;;;-1.18;82.78;101349.47;5034357;28;96431;-32
2022/11/20 05:53:52;;;;;;;1.95;1.45;;;;;;;-1.16;82.94;101341.50;5034874;28;96651;-32
2022/11/20 05:56:20;;;;;;;1.05;0.95;;;;;;;-1.13;82.89;101346.78;5034158;28;99482;-31
2022/11/20 05:58:46;;;;;;;1.30;1.20;;;;;;;-1.11;82.93;101347.66;5016065;28;101083;-31
2022/11/20 06:01:20;;;;;;;1.98;1.80;;;;;;;-1.09;82.80;101344.09;5016196;28;96671;-33
2022/11/20 06:03:47;;;;;;;2.22;1.35;;;;;;;-1.09;82.89;101344.09;5016014;28;96871;-31
2022/11/20 06:06:13;;;;;;;1.17;1.08;;;;;;;-1.05;82.79;101334.31;5015911;28;100919;-32
2022/11/20 06:08:38;;;;;;;2.40;1.73;;;;;;;-1.09;82.88;101325.50;5016188;28;100754;-31
2022/11/20 06:11:09;;;;;;;2.22;2.03;;;;;;;-1.10;83.15;101326.41;5033851;28;110714;-32
2022/11/20 06:13:34;;;;;;;1.00;0.90;;;;;;;-1.10;83.32;101320.16;5016204;28;96739;-32
2022/11/20 06:16:00;;;;;;;1.23;0.88;;;;;;;-1.10;83.37;101315.75;5014929;28;99572;-31
2022/11/20 06:18:28;;;;;;;2.65;1.60;;;;;;;-1.12;83.14;101308.66;5015871;28;101123;-32
2022/11/20 06:21:01;;;;;;;1.50;1.30;;;;;;;-1.11;83.48;101308.66;5033902;28;96717;-31
2022/11/20 06:23:28;;;;;;;0.93;0.93;;;;;;;-1.12;83.33;101321.94;5015962;28;96772;-33
2022/11/20 06:25:53;;;;;;;1.83;1.67;;;;;;;-1.12;83.15;101320.22;5029885;28;97921;-32
2022/11/20 06:28:19;;;;;;;0.57;0.52;;;;;;;-1.10;83.42;101314.84;5033719;28;106204;-31
2022/11/20 06:30:44;;;;;;;1.58;1.38;;;;;;;-1.05;83.41;101322.81;5033863;28;99673;-31
2022/11/20 06:33:10;;;;;;;1.95;1.55;;;;;;;-1.10;83.05;101313.09;5034358;27;96772;-31
2022/11/20 06:35:35;;;;;;;1.40;1.25;;;;;;;-1.11;83.49;101313.09;5033886;28;107673;-31
2022/11/20 06:38:00;;;;;;;3.83;1.17;;;;;;;-1.11;83.60;101316.63;5033317;28;111895;-31
2022/11/20 06:40:26;;;;;;;1.20;1.10;;;;;;;-1.10;83.67;101298.91;5033315;27;96722;-31
2022/11/20 06:42:53;;;;;;;1.58;1.27;;;;;;;-1.10;83.76;101309.53;5033589;27;96895;-31
2022/11/20 06:45:18;;;;;;;2.85;1.63;;;;;;;-1.09;83.51;101313.97;5032194;28;101008;-31
2022/11/20 06:47:44;;;;;;;3.40;1.48;;;;;;;-1.07;83.77;101314.88;5033538;28;101547;-32
2022/11/20 06:50:09;;;;;;;3.47;2.25;;;;;;;-1.01;83.82;101324.56;5033887;27;96616;-31
2022/11/20 06:52:34;;;;;;;1.70;1.38;;;;;;;-1.04;84.05;101311.31;5033215;27;109937;-32
2022/11/20 06:55:00;;;;;;;1.50;1.10;;;;;;;-1.05;83.86;101301.53;5033266;27;99254;-31
2022/11/20 06:57:25;;;;;;;1.63;1.42;;;;;;;-1.03;83.63;101297.09;5033752;27;97429;-32
2022/11/20 06:59:50;;;;;;;1.90;1.63;;;;;;;-1.00;84.09;101311.28;5033051;27;96635;-32
2022/11/20 07:02:15;;;;;;;2.05;1.58;;;;;;;-1.00;84.05;101294.41;5033115;28;107160;-32
2022/11/20 07:04:41;;;;;;;2.25;2.05;;;;;;;-0.96;84.20;101301.47;5032732;28;104078;-32
2022/11/20 07:07:06;;;;;;;3.20;2.35;;;;;;;-0.91;84.13;101295.22;5033072;28;106674;-33
2022/11/20 07:09:33;;;;;;;1.63;1.52;;;;;;;-0.88;84.32;101295.22;5033013;28;102843;-31
2022/11/20 07:11:58;;;;;;;2.50;2.30;;;;;;;-0.82;84.11;101304.94;5032041;28;96851;-31
2022/11/20 07:14:23;;;;;;;1.63;1.17;;;;;;;-0.81;84.27;101303.13;5033154;27;97885;-31
2022/11/20 07:16:49;;;;;;;3.95;1.25;;;;;;;-0.79;84.42;101307.56;5032202;28;114159;-32
2022/11/20 07:19:14;;;;;;;3.83;2.67;;;;;;;-0.81;84.21;101308.47;5033069;28;96637;-32
2022/11/20 07:21:40;;;;;;;2.53;2.33;;;;;;;-0.76;84.31;101301.31;5033345;27;98182;-32
2022/11/20 07:24:05;;;;;;;7.85;4.30;;;;;;;-0.79;84.30;101298.69;5032513;27;97372;-31
2022/11/20 07:26:30;;;;;;;1.42;1.20;;;;;;;-0.85;84.25;101294.31;5033233;28;97420;-32
2022/11/20 07:28:56;;;;;;;2.13;1.70;;;;;;;-0.84;84.46;101295.19;5032057;28;108603;-31
2022/11/20 07:31:21;;;;;;;6.00;2.05;;;;;;;-0.78;84.65;101309.34;5032851;28;97063;-31
2022/11/20 07:33:47;;;;;;;3.20;2.25;;;;;;;-0.73;84.49;101310.19;5032731;28;98732;-31
2022/11/20 07:36:12;;;;;;;5.32;2.78;;;;;;;-0.71;84.64;101297.75;5032687;28;99225;-31
2022/11/20 07:38:38;;;;;;;1.17;1.05;;;;;;;-0.67;84.79;101303.91;5032809;28;97690;-32
2022/11/20 07:41:03;;;;;;;2.45;1.92;;;;;;;-0.63;84.93;101310.09;5014898;28;96810;-31
2022/11/20 07:43:29;;;;;;;4.78;2.67;;;;;;;-0.66;85.09;101306.56;5032876;28;97475;-32
2022/11/20 07:45:58;;;;;;;1.13;1.08;;;;;;;-0.67;85.00;101309.22;5032753;28;99340;-31
2022/11/20 07:48:24;;;;;;;2.28;1.65;;;;;;;-0.65;84.73;101318.09;5014604;28;97039;-31
2022/11/20 07:50:49;;;;;;;2.72;1.48;;;;;;;-0.62;85.03;101322.50;5014527;28;96848;-31
2022/11/20 07:53:20;;;;;;;1.40;1.13;;;;;;;-0.62;85.21;101303.88;5032170;28;97902;-32
2022/11/20 07:55:46;;;;;;;1.52;1.27;;;;;;;-0.55;85.14;101314.47;5014479;28;101164;-31
2022/11/20 07:58:11;;;;;;;2.95;2.25;;;;;;;-0.51;85.21;101307.34;5032513;28;96604;-31
2022/11/20 08:00:36;;;;;;;2.10;1.08;;;;;;;-0.47;85.18;101307.31;5032199;28;107828;-32
2022/11/20 08:03:05;;;;;;;1.92;1.77;;;;;;;-0.41;84.97;101311.69;5032319;28;99272;-32
2022/11/20 08:05:30;;;;;;;2.08;1.38;;;;;;;-0.39;85.02;101296.59;5032562;28;97923;-31
2022/11/20 08:07:55;;;;;;;2.33;1.85;;;;;;;-0.37;85.17;101285.94;5031832;28;104691;-32
2022/11/20 08:10:21;;;;;;;1.55;1.45;;;;;;;-0.41;85.69;101289.50;5032012;27;102329;-32
2022/11/20 08:15:33;;;;;;;2.90;2.38;;;;;;;-0.35;85.65;101282.38;5032526;28;97846;-32
2022/11/20 08:18:00;;;;;;;1.02;0.88;;;;;;;-0.31;85.89;101283.19;5031944;28;96517;-32
2022/11/20 08:20:26;;;;;;;3.83;2.28;;;;;;;-0.25;85.56;101291.13;5014090;28;96884;-32
2022/11/20 08:22:51;;;;;;;3.88;2.47;;;;;;;-0.24;85.69;101276.91;5031870;28;112372;-32
2022/11/20 08:25:16;;;;;;;2.78;2.40;;;;;;;-0.19;85.68;101283.09;5030948;27;110157;-32
2022/11/20 08:27:41;;;;;;;1.70;1.25;;;;;;;-0.15;85.79;101284.81;5013574;28;107690;-31
2022/11/20 08:30:07;;;;;;;1.58;1.48;;;;;;;-0.10;85.56;101285.63;5031914;28;96838;-32
2022/11/20 08:32:35;;;;;;;1.55;1.25;;;;;;;-0.09;85.71;101291.88;5013708;28;101022;-32
2022/11/20 08:35:00;;;;;;;2.35;1.75;;;;;;;-0.04;85.40;101287.38;5032212;28;99260;-32
2022/11/20 08:37:26;;;;;;;3.90;2.53;;;;;;;-0.04;85.49;101290.91;5032336;28;96548;-31
2022/11/20 08:39:53;;;;;;;1.60;1.48;;;;;;;0.02;85.23;101287.28;5013669;28;97827;-31
2022/11/20 08:42:18;;;;;;;2.95;1.95;;;;;;;0.06;85.38;101286.38;5013115;28;101356;-31
2022/11/20 08:44:43;;;;;;;3.72;2.25;;;;;;;0.11;85.93;101286.31;5031403;28;117131;-32
2022/11/20 08:47:09;;;;;;;2.40;1.92;;;;;;;0.11;85.82;101286.31;5032096;28;96450;-31
2022/11/20 08:49:34;;;;;;;3.72;2.03;;;;;;;0.13;86.33;101296.03;5031758;28;104624;-31
2022/11/20 08:51:59;;;;;;;3.65;2.15;;;;;;;0.14;86.03;101284.50;5031492;28;111776;-34
2022/11/20 08:54:24;;;;;;;1.90;1.63;;;;;;;0.20;85.96;101286.22;5031534;28;104509;-32
2022/11/20 08:56:50;;;;;;;2.83;1.88;;;;;;;0.19;86.19;101279.09;5031445;28;109951;-31
2022/11/20 08:59:15;;;;;;;5.05;2.58;;;;;;;0.19;85.79;101277.34;5031901;28;96826;-33
2022/11/20 09:01:41;;;;;;;2.88;1.95;;;;;;;0.26;86.11;101271.94;5031557;28;98793;-31
2022/11/20 09:04:06;;;;;;;2.30;1.88;;;;;;;0.26;86.29;101262.16;5031825;28;97793;-32
2022/11/20 09:06:31;;;;;;;2.83;2.22;;;;;;;0.27;86.16;101258.59;5030967;28;96578;-31
2022/11/20 09:08:57;;;;;;;2.40;1.63;;;;;;;0.31;86.11;101260.34;5031142;28;98598;-33
2022/11/20 09:11:22;;;;;;;1.67;1.20;;;;;;;0.33;86.03;101255.84;5031473;28;99225;-31
2022/11/20 09:13:47;;;;;;;3.63;3.08;;;;;;;0.40;86.67;101264.63;5031661;28;97372;-32
2022/11/20 09:16:13;;;;;;;3.60;2.78;;;;;;;0.44;86.29;101254.84;5031595;28;96814;-32
2022/11/20 09:18:38;;;;;;;5.18;2.40;;;;;;;0.50;85.55;101257.41;5031628;28;96862;-31
2022/11/20 09:21:10;;;;;;;2.13;1.92;;;;;;;0.50;85.90;101241.41;5032561;28;97929;-31
2022/11/20 09:23:37;;;;;;;2.10;1.92;;;;;;;0.54;86.30;101243.16;5035101;28;98802;-31
2022/11/20 09:26:04;;;;;;;4.18;2.90;;;;;;;0.59;86.28;101254.63;5031831;28;96912;-32
2022/11/20 09:28:30;;;;;;;1.02;0.90;;;;;;;0.57;86.57;101243.09;5033515;28;96848;-31
2022/11/20 09:30:55;;;;;;;3.50;2.55;;;;;;;0.57;86.54;101235.09;5032897;28;101284;-32
2022/11/20 09:33:20;;;;;;;2.78;2.30;;;;;;;0.60;86.51;101237.75;5034781;27;99116;-33
2022/11/20 09:35:46;;;;;;;1.52;1.42;;;;;;;0.63;86.57;101219.03;5034386;28;113489;-31
2022/11/20 09:38:11;;;;;;;2.33;1.42;;;;;;;0.66;86.13;101213.66;5034696;27;96780;-31
2022/11/20 09:40:43;;;;;;;3.03;2.03;;;;;;;0.71;86.24;101206.44;5034674;27;97831;-31
2022/11/20 09:43:18;;;;;;;2.83;2.17;;;;;;;0.76;86.54;101204.63;5033317;28;99018;-31
2022/11/20 09:45:52;;;;;;;3.25;1.38;;;;;;;0.80;86.13;101194.78;5033489;28;96655;-32
2022/11/20 09:48:32;;;;;;;5.85;2.97;;;;;;;0.86;85.74;101197.34;5035196;28;96847;-32
2022/11/20 09:51:22;;;;;;;3.42;2.28;;;;;;;0.84;86.46;101189.38;5034660;28;97972;-32
2022/11/20 09:54:10;;;;;;;2.25;1.52;;;;;;;0.88;86.57;101195.53;5033045;28;101039;-31
2022/11/20 09:56:40;;;;;;;7.25;1.63;;;;;;;0.88;87.06;101187.53;5032735;28;97677;-31
2022/11/20 09:59:12;;;;;;;3.72;2.80;;;;;;;0.88;86.83;101183.97;5034671;28;96592;-32
2022/11/20 10:01:40;;;;;;;5.38;3.97;;;;;;;0.88;87.18;101181.31;5033086;28;101402;-31
2022/11/20 10:04:17;;;;;;;4.15;3.60;;;;;;;0.92;86.76;101175.03;5032970;28;100951;-31
2022/11/20 10:06:43;;;;;;;3.90;2.45;;;;;;;0.97;87.39;101170.50;5033074;28;96655;-32
2022/11/20 10:09:11;;;;;;;2.35;1.50;;;;;;;0.98;87.11;101165.16;5034017;28;96796;-33
2022/11/20 10:12:06;;;;;;;2.13;1.92;;;;;;;0.99;87.32;101150.03;5034244;28;97069;-32
2022/11/20 10:14:55;;;;;;;2.53;2.00;;;;;;;0.96;87.54;101137.63;5019260;28;98141;-31
2022/11/20 10:17:33;;;;;;;4.25;2.10;;;;;;;0.97;87.67;101142.03;5034319;27;96815;-33
2022/11/20 10:20:16;;;;;;;1.58;1.48;;;;;;;0.97;88.30;101130.50;5032808;28;96772;-33
2022/11/20 10:22:58;;;;;;;4.28;2.30;;;;;;;0.97;88.60;101130.50;5032310;28;100804;-33
2022/11/20 10:25:38;;;;;;;1.83;1.08;;;;;;;0.98;88.31;101121.59;5032427;28;101035;-31
2022/11/20 10:28:14;;;;;;;4.45;2.22;;;;;;;1.02;89.09;101116.16;5033914;27;96575;-32
2022/11/20 10:30:45;;;;;;;5.90;3.20;;;;;;;1.04;88.73;101110.81;5032721;28;96636;-32
2022/11/20 10:33:19;;;;;;;2.63;2.03;;;;;;;1.09;88.48;101111.59;5031356;27;100904;-35
2022/11/20 10:35:54;;;;;;;2.33;1.83;;;;;;;1.10;89.59;101097.38;5029688;28;101526;-32
2022/11/20 10:38:36;;;;;;;8.38;2.13;;;;;;;1.09;89.76;101090.25;5029731;28;97067;-33
2022/11/20 10:43:50;;;;;;;2.78;2.20;;;;;;;1.17;90.13;101093.69;5031575;28;97540;-33
2022/11/20 10:46:21;;;;;;;7.38;3.58;;;;;;;1.21;89.02;101098.03;5029762;28;101124;-34
2022/11/20 10:48:48;;;;;;;4.00;2.45;;;;;;;1.26;89.07;101093.50;5029941;28;97656;-31
2022/11/20 10:51:28;;;;;;;4.43;3.15;;;;;;;1.32;88.98;101092.50;5031836;28;96655;-31
2022/11/20 10:54:17;;;;;;;2.05;1.80;;;;;;;1.35;88.59;101087.09;5032307;28;97982;-31
2022/11/20 10:56:47;;;;;;;6.13;4.03;;;;;;;1.38;88.69;101079.06;5031101;28;99790;-33
2022/11/20 10:59:28;;;;;;;4.15;1.90;;;;;;;1.47;88.41;101077.97;5031402;28;96626;-34
2022/11/20 11:01:53;;;;;;;2.67;2.30;;;;;;;1.51;89.07;101065.44;5031747;28;97189;-31
2022/11/20 11:04:28;;;;;;;2.35;1.88;;;;;;;1.53;89.35;101056.50;5032173;28;104354;-31
2022/11/20 11:07:01;;;;;;;3.00;1.85;;;;;;;1.53;89.49;101047.63;5031864;28;97942;-32
2022/11/20 11:09:42;;;;;;;2.03;1.83;;;;;;;1.56;89.39;101052.88;5032704;27;96788;-31
2022/11/20 11:12:09;;;;;;;1.95;1.80;;;;;;;1.60;89.97;101041.25;5032745;28;96658;-31
2022/11/20 11:14:49;;;;;;;3.50;2.38;;;;;;;1.66;90.03;101039.28;5030867;28;100929;-31
2022/11/20 11:17:33;;;;;;;3.33;2.03;;;;;;;1.69;90.51;101033.91;5032857;28;99211;-31
2022/11/20 11:20:06;;;;;;;2.97;2.42;;;;;;;1.66;90.75;101022.41;5031714;28;96635;-32
2022/11/20 11:22:33;;;;;;;4.88;2.13;;;;;;;1.70;90.61;101016.97;5031810;28;96894;-33
2022/11/20 11:25:00;;;;;;;12.52;3.78;;;;;;;1.76;91.52;101015.06;5041826;27;97255;-35
2022/11/20 11:27:25;;;;;;;3.28;2.85;;;;;;;1.82;90.79;101009.59;5032166;27;101391;-33
2022/11/20 11:30:02;;;;;;;1.70;1.60;;;;;;;1.81;91.84;100999.81;5051140;27;97008;-31
2022/11/20 11:32:27;;;;;;;7.75;1.25;;;;;;;1.88;91.40;100980.06;5032781;27;97266;-32